createdAt,value
2022-10-17T00:01:11.995Z,78.89
2022-10-17T00:03:40.902Z,78.97
2022-10-17T00:06:15.094Z,78.86
2022-10-17T00:08:44.326Z,78.81
2022-10-17T00:11:23.755Z,79.03
2022-10-17T00:13:55.001Z,78.99
2022-10-17T00:16:29.595Z,78.97
2022-10-17T00:18:57.596Z,79.17
2022-10-17T00:21:26.509Z,79.21
2022-10-17T00:23:55.453Z,79.25
2022-10-17T00:26:23.503Z,79.38
2022-10-17T00:28:52.701Z,79.24
2022-10-17T00:31:22.665Z,79.27
2022-10-17T00:33:51.294Z,79.28
2022-10-17T00:36:22.895Z,79.25
2022-10-17T00:38:57.289Z,79.09
2022-10-17T00:41:30.163Z,79.53
2022-10-17T00:44:05.694Z,79.60
2022-10-17T00:46:39.276Z,79.42
2022-10-17T00:49:12.613Z,79.46
2022-10-17T00:51:47.409Z,79.19
2022-10-17T00:54:19.440Z,79.61
2022-10-17T00:56:48.651Z,79.75
2022-10-17T00:59:20.256Z,79.82
2022-10-17T01:02:16.138Z,79.84
2022-10-17T01:04:48.864Z,79.75
2022-10-17T01:07:17.080Z,79.79
2022-10-17T01:09:47.006Z,79.74
2022-10-17T01:12:40.278Z,79.79
2022-10-17T01:15:14.130Z,79.84
2022-10-17T01:17:42.087Z,79.75
2022-10-17T01:20:28.820Z,79.53
2022-10-17T01:23:29.118Z,80.10
2022-10-17T01:26:19.722Z,79.89
2022-10-17T01:29:00.121Z,80.04
2022-10-17T01:31:47.825Z,79.92
2022-10-17T01:34:36.394Z,79.97
2022-10-17T01:37:14.873Z,80.19
2022-10-17T01:39:52.940Z,80.18
2022-10-17T01:42:34.339Z,80.01
2022-10-17T01:45:33.666Z,80.02
2022-10-17T01:48:09.427Z,80.05
2022-10-17T01:50:39.878Z,79.98
2022-10-17T01:53:20.152Z,80.05
2022-10-17T01:55:51.478Z,80.03
2022-10-17T01:58:34.511Z,80.41
2022-10-17T02:01:07.656Z,80.24
2022-10-17T02:03:36.295Z,80.26
2022-10-17T02:06:07.830Z,80.17
2022-10-17T02:08:46.962Z,80.43
2022-10-17T02:11:24.072Z,80.16
2022-10-17T02:14:05.096Z,80.26
2022-10-17T02:16:36.186Z,80.50
2022-10-17T02:19:16.339Z,80.43
2022-10-17T02:21:47.190Z,80.51
2022-10-17T02:24:30.268Z,80.42
2022-10-17T02:27:10.971Z,80.40
2022-10-17T02:29:50.283Z,80.29
2022-10-17T02:32:29.115Z,80.40
2022-10-17T02:35:03.608Z,80.31
2022-10-17T02:37:33.228Z,80.24
2022-10-17T02:40:03.362Z,80.27
2022-10-17T02:42:32.846Z,80.51
2022-10-17T02:45:03.096Z,80.45
2022-10-17T02:48:09.492Z,80.55
2022-10-17T02:50:46.288Z,80.38
2022-10-17T02:53:24.522Z,80.67
2022-10-17T02:55:59.239Z,80.42
2022-10-17T02:58:32.448Z,80.50
2022-10-17T03:01:04.546Z,80.25
2022-10-17T03:03:34.196Z,80.44
2022-10-17T03:06:02.916Z,80.44
2022-10-17T03:08:31.050Z,80.67
2022-10-17T03:10:59.123Z,80.53
2022-10-17T03:13:29.337Z,80.58
2022-10-17T03:15:58.694Z,80.54
2022-10-17T03:18:26.752Z,80.66
2022-10-17T03:20:58.559Z,80.76
2022-10-17T03:23:26.719Z,80.79
2022-10-17T03:25:54.830Z,80.87
2022-10-17T03:28:23.443Z,80.59
2022-10-17T03:30:51.477Z,80.91
2022-10-17T03:33:19.402Z,80.66
2022-10-17T03:35:47.559Z,80.72
2022-10-17T03:38:15.509Z,80.93
2022-10-17T03:40:43.783Z,80.72
2022-10-17T03:43:12.143Z,80.89
2022-10-17T03:45:41.107Z,80.54
2022-10-17T03:48:09.609Z,80.68
2022-10-17T03:50:37.938Z,80.83
2022-10-17T03:53:06.667Z,80.83
2022-10-17T03:55:35.432Z,80.67
2022-10-17T03:58:03.556Z,80.84
2022-10-17T04:00:31.904Z,80.84
2022-10-17T04:02:59.797Z,80.89
2022-10-17T04:05:28.127Z,80.76
2022-10-17T04:08:02.370Z,80.79
2022-10-17T04:10:53.349Z,80.92
2022-10-17T04:13:21.418Z,81.09
2022-10-17T04:16:01.594Z,81.05
2022-10-17T04:18:31.014Z,81.24
2022-10-17T04:21:01.814Z,81.11
2022-10-17T04:23:30.531Z,81.24
2022-10-17T04:26:03.618Z,81.18
2022-10-17T04:28:32.885Z,81.30
2022-10-17T04:31:10.207Z,81.38
2022-10-17T04:33:56.795Z,81.14
2022-10-17T04:36:25.037Z,81.33
2022-10-17T04:38:53.175Z,81.30
2022-10-17T04:41:21.921Z,81.21
2022-10-17T04:43:51.241Z,81.34
2022-10-17T04:46:20.645Z,81.19
2022-10-17T04:48:49.931Z,81.26
2022-10-17T04:51:21.810Z,81.38
2022-10-17T04:54:13.052Z,81.34
2022-10-17T04:56:43.338Z,81.50
2022-10-17T04:59:11.557Z,81.46
2022-10-17T05:01:40.821Z,81.32
2022-10-17T05:04:09.025Z,81.23
2022-10-17T05:06:38.089Z,81.41
2022-10-17T05:09:35.734Z,81.46
2022-10-17T05:12:06.649Z,81.66
2022-10-17T05:14:41.036Z,81.81
2022-10-17T05:17:09.214Z,81.59
2022-10-17T05:19:38.012Z,81.67
2022-10-17T05:22:06.772Z,81.78
2022-10-17T05:24:34.952Z,81.88
2022-10-17T05:27:03.209Z,81.82
2022-10-17T05:29:31.294Z,81.75
2022-10-17T05:32:06.395Z,81.73
2022-10-17T05:34:36.110Z,81.85
2022-10-17T05:37:04.331Z,82.07
2022-10-17T05:39:33.277Z,81.96
2022-10-17T05:42:01.549Z,81.94
2022-10-17T05:44:29.959Z,81.97
2022-10-17T05:47:00.373Z,82.09
2022-10-17T05:49:40.096Z,81.96
2022-10-17T05:52:15.140Z,82.42
2022-10-17T05:54:54.725Z,82.19
2022-10-17T05:57:26.025Z,82.18
2022-10-17T05:59:54.583Z,82.37
2022-10-17T06:02:23.127Z,82.23
2022-10-17T06:04:51.387Z,82.09
2022-10-17T06:07:21.852Z,82.18
2022-10-17T06:09:50.163Z,82.62
2022-10-17T06:12:18.236Z,82.61
2022-10-17T06:14:47.077Z,82.40
2022-10-17T06:17:16.535Z,82.66
2022-10-17T06:19:45.644Z,82.39
2022-10-17T06:22:16.799Z,82.76
2022-10-17T06:24:45.191Z,82.84
2022-10-17T06:27:13.962Z,82.86
2022-10-17T06:29:43.349Z,82.73
2022-10-17T06:32:14.945Z,82.80
2022-10-17T06:34:46.976Z,82.81
2022-10-17T06:37:16.101Z,82.82
2022-10-17T06:39:44.910Z,82.73
2022-10-17T06:42:16.614Z,82.64
2022-10-17T06:44:48.585Z,82.57
2022-10-17T06:47:34.942Z,82.46
2022-10-17T06:50:10.054Z,82.54
2022-10-17T06:52:45.166Z,82.26
2022-10-17T06:55:33.577Z,82.33
2022-10-17T06:58:39.816Z,82.38
2022-10-17T07:01:24.068Z,82.32
2022-10-17T07:03:56.639Z,82.16
2022-10-17T07:06:26.054Z,82.17
2022-10-17T07:08:56.802Z,82.15
2022-10-17T07:11:26.052Z,81.93
2022-10-17T07:13:54.148Z,81.90
2022-10-17T07:16:27.238Z,81.93
2022-10-17T07:19:03.883Z,81.68
2022-10-17T07:21:39.006Z,81.53
2022-10-17T07:24:13.171Z,81.63
2022-10-17T07:26:46.295Z,81.51
2022-10-17T07:29:14.711Z,81.46
2022-10-17T07:31:58.566Z,81.33
2022-10-17T07:34:31.575Z,81.21
2022-10-17T07:37:00.432Z,80.67
2022-10-17T07:39:29.124Z,80.46
2022-10-17T07:41:58.889Z,80.58
2022-10-17T07:44:27.221Z,80.35
2022-10-17T07:46:55.713Z,80.46
2022-10-17T07:49:24.071Z,80.33
2022-10-17T07:51:53.622Z,79.29
2022-10-17T07:54:21.682Z,79.66
2022-10-17T07:56:50.824Z,79.34
2022-10-17T07:59:19.665Z,79.46
2022-10-17T08:01:49.066Z,78.74
2022-10-17T08:04:17.757Z,77.41
2022-10-17T08:06:46.163Z,78.41
2022-10-17T08:09:14.145Z,78.01
2022-10-17T08:11:44.169Z,78.08
2022-10-17T08:14:13.788Z,78.17
2022-10-17T08:16:41.981Z,77.91
2022-10-17T08:19:11.588Z,77.37
2022-10-17T08:21:41.398Z,77.55
2022-10-17T08:24:09.623Z,77.36
2022-10-17T08:26:42.332Z,77.04
2022-10-17T08:29:17.081Z,76.98
2022-10-17T08:31:47.865Z,76.30
2022-10-17T08:34:17.265Z,75.75
2022-10-17T08:36:45.312Z,74.83
2022-10-17T08:39:13.596Z,75.19
2022-10-17T08:42:12.795Z,73.48
2022-10-17T08:45:35.167Z,73.70
2022-10-17T08:48:10.028Z,73.72
2022-10-17T08:50:52.772Z,74.12
2022-10-17T08:53:31.891Z,73.71
2022-10-17T08:56:09.409Z,73.82
2022-10-17T08:58:40.199Z,72.91
2022-10-17T09:01:17.755Z,72.50
2022-10-17T09:03:54.265Z,72.50
2022-10-17T09:06:36.685Z,72.67
2022-10-17T09:09:20.213Z,72.58
2022-10-17T09:12:20.639Z,72.39
2022-10-17T09:14:59.667Z,71.97
2022-10-17T09:17:43.368Z,71.72
2022-10-17T09:20:22.817Z,71.95
2022-10-17T09:22:57.846Z,71.93
2022-10-17T09:25:27.778Z,71.67
2022-10-17T09:28:23.846Z,71.52
2022-10-17T09:31:14.724Z,71.66
2022-10-17T09:34:00.229Z,71.14
2022-10-17T09:36:34.450Z,70.75
2022-10-17T09:39:04.858Z,70.55
2022-10-17T09:41:46.917Z,69.12
2022-10-17T09:44:21.872Z,70.27
2022-10-17T09:47:08.872Z,69.55
2022-10-17T09:49:39.593Z,69.42
2022-10-17T09:52:15.427Z,68.36
2022-10-17T09:54:51.510Z,68.77
2022-10-17T09:57:21.504Z,67.95
2022-10-17T09:59:57.818Z,68.31
2022-10-17T10:02:27.941Z,68.51
2022-10-17T10:05:19.153Z,68.23
2022-10-17T10:08:03.638Z,68.15
2022-10-17T10:10:32.926Z,67.17
2022-10-17T10:13:13.430Z,67.64
2022-10-17T10:15:50.476Z,67.86
2022-10-17T10:18:24.755Z,67.86
2022-10-17T10:21:17.862Z,67.95
2022-10-17T10:24:05.125Z,67.79
2022-10-17T10:26:45.062Z,67.80
2022-10-17T10:29:32.948Z,67.38
2022-10-17T10:32:23.033Z,67.07
2022-10-17T10:34:51.025Z,66.78
2022-10-17T10:37:44.504Z,66.34
2022-10-17T10:40:23.299Z,66.68
2022-10-17T10:42:54.530Z,66.72
2022-10-17T10:45:46.413Z,66.85
2022-10-17T10:48:34.754Z,66.91
2022-10-17T10:51:14.766Z,66.02
2022-10-17T10:54:04.092Z,66.00
2022-10-17T10:56:39.471Z,66.28
2022-10-17T10:59:10.362Z,65.82
2022-10-17T11:02:12.665Z,65.56
2022-10-17T11:04:50.105Z,65.91
2022-10-17T11:07:36.671Z,65.28
2022-10-17T11:10:32.662Z,65.44
2022-10-17T11:13:10.896Z,65.25
2022-10-17T11:15:58.054Z,64.55
2022-10-17T11:18:36.194Z,64.91
2022-10-17T11:21:21.099Z,64.61
2022-10-17T11:24:26.961Z,64.29
2022-10-17T11:27:04.731Z,64.99
2022-10-17T11:29:36.863Z,64.63
2022-10-17T11:32:17.807Z,64.27
2022-10-17T11:34:51.098Z,64.32
2022-10-17T11:37:24.216Z,64.20
2022-10-17T11:40:06.921Z,64.00
2022-10-17T11:42:43.957Z,63.40
2022-10-17T11:45:20.647Z,63.42
2022-10-17T11:47:54.541Z,63.56
2022-10-17T11:54:07.088Z,63.49
2022-10-17T11:56:51.183Z,63.69
2022-10-17T11:59:53.756Z,63.12
2022-10-17T12:02:35.884Z,63.32
2022-10-17T12:05:16.003Z,63.32
2022-10-17T12:08:11.645Z,63.15
2022-10-17T12:11:07.620Z,62.99
2022-10-17T12:13:41.296Z,63.11
2022-10-17T12:16:21.104Z,63.28
2022-10-17T12:19:01.173Z,63.01
2022-10-17T12:21:49.782Z,62.28
2022-10-17T12:24:48.949Z,62.87
2022-10-17T12:27:23.266Z,62.70
2022-10-17T12:30:00.136Z,62.59
2022-10-17T12:32:36.782Z,63.04
2022-10-17T12:35:22.417Z,62.82
2022-10-17T12:37:57.342Z,62.75
2022-10-17T12:40:35.673Z,62.53
2022-10-17T12:43:30.339Z,62.46
2022-10-17T12:46:02.855Z,62.66
2022-10-17T12:48:33.977Z,62.05
2022-10-17T12:51:34.899Z,62.48
2022-10-17T12:54:12.864Z,62.48
2022-10-17T12:56:44.622Z,62.35
2022-10-17T12:59:25.864Z,62.37
2022-10-17T13:02:00.335Z,62.58
2022-10-17T13:04:30.426Z,62.29
2022-10-17T13:07:01.453Z,62.06
2022-10-17T13:09:33.266Z,62.41
2022-10-17T13:12:04.676Z,62.29
2022-10-17T13:14:34.232Z,62.47
2022-10-17T13:17:07.503Z,62.32
2022-10-17T13:19:45.673Z,61.98
2022-10-17T13:22:25.232Z,61.86
2022-10-17T13:25:07.526Z,61.96
2022-10-17T13:27:37.809Z,61.98
2022-10-17T13:30:29.333Z,62.10
2022-10-17T13:33:02.102Z,62.16
2022-10-17T13:35:59.924Z,62.04
2022-10-17T13:38:25.994Z,61.85
2022-10-17T13:41:01.615Z,61.77
2022-10-17T13:43:39.444Z,62.21
2022-10-17T13:46:36.098Z,62.29
2022-10-17T13:49:35.295Z,62.23
2022-10-17T13:52:06.756Z,62.13
2022-10-17T13:54:34.778Z,62.24
2022-10-17T13:57:05.498Z,62.11
2022-10-17T13:59:47.819Z,61.86
2022-10-17T14:02:20.504Z,62.01
2022-10-17T14:05:22.917Z,62.25
2022-10-17T14:08:14.169Z,62.42
2022-10-17T14:10:45.417Z,62.47
2022-10-17T14:13:24.973Z,62.53
2022-10-17T14:15:55.835Z,62.54
2022-10-17T14:18:38.961Z,62.70
2022-10-17T14:24:29.092Z,62.87
2022-10-17T14:26:59.815Z,62.81
2022-10-17T14:29:32.835Z,62.94
2022-10-17T14:32:13.862Z,62.92
2022-10-17T14:34:42.126Z,62.93
2022-10-17T14:37:13.011Z,62.99
2022-10-17T14:39:41.300Z,63.02
2022-10-17T14:42:20.598Z,62.97
2022-10-17T14:44:54.124Z,63.22
2022-10-17T14:47:42.696Z,63.15
2022-10-17T14:50:11.538Z,63.26
2022-10-17T14:52:40.855Z,63.26
2022-10-17T14:55:27.293Z,63.17
2022-10-17T14:57:55.869Z,63.33
2022-10-17T15:00:24.976Z,63.56
2022-10-17T15:02:55.832Z,63.35
2022-10-17T15:05:25.026Z,63.44
2022-10-17T15:07:54.136Z,63.47
2022-10-17T15:10:24.860Z,63.40
2022-10-17T15:12:58.766Z,63.53
2022-10-17T15:15:31.977Z,63.67
2022-10-17T15:18:00.548Z,63.68
2022-10-17T15:20:30.657Z,63.70
2022-10-17T15:23:01.212Z,63.79
2022-10-17T15:25:31.302Z,63.84
2022-10-17T15:27:59.341Z,63.74
2022-10-17T15:30:33.029Z,63.85
2022-10-17T15:33:01.865Z,63.91
2022-10-17T15:35:31.098Z,64.15
2022-10-17T15:37:59.130Z,63.95
2022-10-17T15:40:29.768Z,64.05
2022-10-17T15:42:58.043Z,63.97
2022-10-17T15:45:26.541Z,64.24
2022-10-17T15:48:05.988Z,64.42
2022-10-17T15:50:33.931Z,64.58
2022-10-17T15:53:01.982Z,64.77
2022-10-17T15:55:32.045Z,64.75
2022-10-17T15:58:00.126Z,64.70
2022-10-17T16:00:28.377Z,65.09
2022-10-17T16:02:56.753Z,65.04
2022-10-17T16:05:26.396Z,65.13
2022-10-17T16:07:54.907Z,65.26
2022-10-17T16:10:23.228Z,65.28
2022-10-17T16:12:51.539Z,65.44
2022-10-17T16:15:23.981Z,65.63
2022-10-17T16:17:53.542Z,65.73
2022-10-17T16:20:23.173Z,65.77
2022-10-17T16:22:51.497Z,65.83
2022-10-17T16:25:21.072Z,65.83
2022-10-17T16:27:52.235Z,65.90
2022-10-17T16:32:55.008Z,65.84
2022-10-17T16:35:33.173Z,65.97
2022-10-17T16:38:06.659Z,66.03
2022-10-17T16:40:38.187Z,66.19
2022-10-17T16:43:06.966Z,66.27
2022-10-17T16:45:36.278Z,66.30
2022-10-17T16:48:04.474Z,66.38
2022-10-17T16:50:35.643Z,66.38
2022-10-17T16:53:04.198Z,66.66
2022-10-17T16:55:32.146Z,66.52
2022-10-17T16:58:01.497Z,66.55
2022-10-17T17:00:29.709Z,66.67
2022-10-17T17:02:57.734Z,66.74
2022-10-17T17:05:25.773Z,66.84
2022-10-17T17:07:55.827Z,66.91
2022-10-17T17:10:26.966Z,66.97
2022-10-17T17:12:54.917Z,66.93
2022-10-17T17:15:23.005Z,67.00
2022-10-17T17:17:54.983Z,67.00
2022-10-17T17:20:23.742Z,67.09
2022-10-17T17:22:52.498Z,67.00
2022-10-17T17:25:22.561Z,67.19
2022-10-17T17:27:50.563Z,66.99
2022-10-17T17:30:18.726Z,67.03
2022-10-17T17:32:46.760Z,67.05
2022-10-17T17:35:14.882Z,66.75
2022-10-17T17:37:43.333Z,66.77
2022-10-17T17:40:11.736Z,66.86
2022-10-17T17:42:39.685Z,66.87
2022-10-17T17:45:08.385Z,66.67
2022-10-17T17:47:36.475Z,66.73
2022-10-17T17:50:05.008Z,66.60
2022-10-17T17:52:33.375Z,66.66
2022-10-17T17:55:02.828Z,66.67
2022-10-17T17:57:31.751Z,66.66
2022-10-17T17:59:59.703Z,66.79
2022-10-17T18:02:28.075Z,66.67
2022-10-17T18:04:57.107Z,66.48
2022-10-17T18:07:25.217Z,66.52
2022-10-17T18:09:53.328Z,66.51
2022-10-17T18:12:23.424Z,66.44
2022-10-17T18:14:51.476Z,66.72
2022-10-17T18:17:20.250Z,66.55
2022-10-17T18:19:48.641Z,66.79
2022-10-17T18:22:16.986Z,66.40
2022-10-17T18:24:45.043Z,66.65
2022-10-17T18:27:16.013Z,66.36
2022-10-17T18:29:46.232Z,66.46
2022-10-17T18:32:15.492Z,66.74
2022-10-17T18:34:43.538Z,66.40
2022-10-17T18:37:11.701Z,66.47
2022-10-17T18:39:40.308Z,66.56
2022-10-17T18:42:08.523Z,66.90
2022-10-17T18:44:36.713Z,66.57
2022-10-17T18:47:04.859Z,66.87
2022-10-17T18:49:32.944Z,66.72
2022-10-17T18:52:00.864Z,66.86
2022-10-17T18:54:29.594Z,66.82
2022-10-17T18:56:57.849Z,66.78
2022-10-17T18:59:25.854Z,66.67
2022-10-17T19:01:56.651Z,66.86
2022-10-17T19:04:24.715Z,66.78
2022-10-17T19:06:53.203Z,66.53
2022-10-17T19:09:21.248Z,67.10
2022-10-17T19:11:49.205Z,66.74
2022-10-17T19:14:17.200Z,66.75
2022-10-17T19:16:48.033Z,67.05
2022-10-17T19:19:24.742Z,67.05
2022-10-17T19:21:53.347Z,66.95
2022-10-17T19:24:26.673Z,66.64
2022-10-17T19:26:57.360Z,66.96
2022-10-17T19:29:27.889Z,66.92
2022-10-17T19:34:24.159Z,67.04
2022-10-17T19:36:52.117Z,66.82
2022-10-17T19:39:23.486Z,67.22
2022-10-17T19:41:51.528Z,67.01
2022-10-17T19:44:19.947Z,67.06
2022-10-17T19:46:49.323Z,66.89
2022-10-17T19:49:19.117Z,67.11
2022-10-17T19:51:47.326Z,67.21
2022-10-17T19:54:18.382Z,67.23
2022-10-17T19:56:47.156Z,67.03
2022-10-17T19:59:17.193Z,67.07
2022-10-17T20:01:45.849Z,67.41
2022-10-17T20:04:14.372Z,67.61
2022-10-17T20:06:42.741Z,67.50
2022-10-17T20:09:15.764Z,67.52
2022-10-17T20:11:45.776Z,67.68
2022-10-17T20:14:13.920Z,67.61
2022-10-17T20:16:44.858Z,67.69
2022-10-17T20:19:13.725Z,67.65
2022-10-17T20:21:43.129Z,67.59
2022-10-17T20:24:14.885Z,67.72
2022-10-17T20:26:43.935Z,67.80
2022-10-17T20:29:15.799Z,67.69
2022-10-17T20:31:46.126Z,67.70
2022-10-17T20:34:16.097Z,67.50
2022-10-17T20:36:44.497Z,67.50
2022-10-17T20:39:14.386Z,67.79
2022-10-17T20:41:43.741Z,67.77
2022-10-17T20:44:13.078Z,67.83
2022-10-17T20:46:48.633Z,67.83
2022-10-17T20:49:26.742Z,68.01
2022-10-17T20:51:54.815Z,68.15
2022-10-17T20:54:22.823Z,68.11
2022-10-17T20:56:51.205Z,68.01
2022-10-17T20:59:19.460Z,68.02
2022-10-17T21:01:48.061Z,68.11
2022-10-17T21:07:04.675Z,68.19
2022-10-17T21:09:33.751Z,68.36
2022-10-17T21:12:02.570Z,67.86
2022-10-17T21:14:30.687Z,67.94
2022-10-17T21:17:03.745Z,68.43
2022-10-17T21:19:33.693Z,68.39
2022-10-17T21:22:01.932Z,68.46
2022-10-17T21:24:30.907Z,68.53
2022-10-17T21:26:59.018Z,68.52
2022-10-17T21:29:27.392Z,68.52
2022-10-17T21:31:55.547Z,68.47
2022-10-17T21:34:25.175Z,68.55
2022-10-17T21:36:53.654Z,68.50
2022-10-17T21:39:23.064Z,68.67
2022-10-17T21:41:51.792Z,68.42
2022-10-17T21:44:26.767Z,68.61
2022-10-17T21:46:55.635Z,68.56
2022-10-17T21:49:25.142Z,68.66
2022-10-17T21:51:54.031Z,68.59
2022-10-17T21:54:23.688Z,68.51
2022-10-17T21:56:51.921Z,68.73
2022-10-17T21:59:19.915Z,68.69
2022-10-17T22:01:48.012Z,68.65
2022-10-17T22:04:18.264Z,68.65
2022-10-17T22:06:48.424Z,68.70
2022-10-17T22:09:19.778Z,68.70
2022-10-17T22:11:51.000Z,68.60
2022-10-17T22:14:20.880Z,68.93
2022-10-17T22:16:50.056Z,68.70
2022-10-17T22:19:21.328Z,68.78
2022-10-17T22:21:49.524Z,68.56
2022-10-17T22:24:19.343Z,68.68
2022-10-17T22:26:48.514Z,68.74
2022-10-17T22:29:17.003Z,68.80
2022-10-17T22:31:45.151Z,68.89
2022-10-17T22:34:15.816Z,68.78
2022-10-17T22:36:44.085Z,68.95
2022-10-17T22:39:12.327Z,69.16
2022-10-17T22:41:40.552Z,69.04
2022-10-17T22:44:08.611Z,68.92
2022-10-17T22:46:36.585Z,69.12
2022-10-17T22:49:04.715Z,69.00
2022-10-17T22:51:32.888Z,68.89
2022-10-17T22:54:01.530Z,69.11
2022-10-17T22:56:29.565Z,69.05
2022-10-17T22:58:57.488Z,69.48
2022-10-17T23:01:26.197Z,69.26
2022-10-17T23:03:54.284Z,69.30
2022-10-17T23:06:23.918Z,69.30
2022-10-17T23:08:52.445Z,69.39
2022-10-17T23:11:21.082Z,69.27
2022-10-17T23:13:49.407Z,69.40
2022-10-17T23:16:17.664Z,69.35
2022-10-17T23:18:45.907Z,69.35
2022-10-17T23:21:13.960Z,69.27
2022-10-17T23:23:41.953Z,69.54
2022-10-17T23:26:13.552Z,69.47
2022-10-17T23:28:42.963Z,69.50
2022-10-17T23:31:17.371Z,69.61
2022-10-17T23:33:46.967Z,69.58
2022-10-17T23:36:18.124Z,69.57
2022-10-17T23:38:47.205Z,69.61
2022-10-17T23:41:15.781Z,69.79
2022-10-17T23:43:44.210Z,69.63
2022-10-17T23:46:12.481Z,69.71
2022-10-17T23:48:41.385Z,69.71
2022-10-17T23:51:10.722Z,69.82
2022-10-17T23:53:40.135Z,69.78
2022-10-17T23:56:10.575Z,69.82
2022-10-17T23:58:39.314Z,69.88
